sensor_id;sensor_type;location;lat;lon;timestamp;P1;durP1;ratioP1;P2;durP2;ratioP2
45322;SDS011;31382;50.200;8.674;2023-02-23T00:06:22;41.47;;;21.45;;
45322;SDS011;31382;50.200;8.674;2023-02-23T00:11:25;42.42;;;21.50;;
45322;SDS011;31382;50.200;8.674;2023-02-23T00:16:27;43.30;;;22.02;;
45322;SDS011;31382;50.200;8.674;2023-02-23T00:21:29;41.58;;;20.85;;
45322;SDS011;31382;50.200;8.674;2023-02-23T00:26:33;39.97;;;20.92;;
45322;SDS011;31382;50.200;8.674;2023-02-23T00:31:35;40.83;;;21.98;;
45322;SDS011;31382;50.200;8.674;2023-02-23T00:36:38;38.35;;;21.88;;
45322;SDS011;31382;50.200;8.674;2023-02-23T00:41:40;36.53;;;20.42;;
45322;SDS011;31382;50.200;8.674;2023-02-23T00:46:43;38.95;;;21.38;;
45322;SDS011;31382;50.200;8.674;2023-02-23T00:51:45;36.30;;;18.77;;
45322;SDS011;31382;50.200;8.674;2023-02-23T00:56:47;37.22;;;20.23;;
45322;SDS011;31382;50.200;8.674;2023-02-23T01:01:48;35.17;;;20.70;;
45322;SDS011;31382;50.200;8.674;2023-02-23T01:06:50;35.45;;;18.75;;
45322;SDS011;31382;50.200;8.674;2023-02-23T01:11:51;35.08;;;20.75;;
45322;SDS011;31382;50.200;8.674;2023-02-23T01:16:53;38.00;;;20.70;;
45322;SDS011;31382;50.200;8.674;2023-02-23T01:21:54;38.53;;;21.70;;
45322;SDS011;31382;50.200;8.674;2023-02-23T01:26:56;37.45;;;19.75;;
45322;SDS011;31382;50.200;8.674;2023-02-23T01:31:57;39.67;;;20.27;;
45322;SDS011;31382;50.200;8.674;2023-02-23T01:36:59;39.13;;;21.05;;
45322;SDS011;31382;50.200;8.674;2023-02-23T01:42:00;35.70;;;21.08;;
45322;SDS011;31382;50.200;8.674;2023-02-23T01:47:01;35.72;;;20.50;;
45322;SDS011;31382;50.200;8.674;2023-02-23T01:52:05;35.92;;;20.58;;
45322;SDS011;31382;50.200;8.674;2023-02-23T01:57:11;41.58;;;21.65;;
45322;SDS011;31382;50.200;8.674;2023-02-23T02:02:17;37.72;;;21.55;;
45322;SDS011;31382;50.200;8.674;2023-02-23T02:07:24;35.75;;;20.77;;
45322;SDS011;31382;50.200;8.674;2023-02-23T02:12:28;43.95;;;22.45;;
45322;SDS011;31382;50.200;8.674;2023-02-23T02:17:39;36.78;;;21.10;;
45322;SDS011;31382;50.200;8.674;2023-02-23T02:28:38;41.45;;;24.50;;
45322;SDS011;31382;50.200;8.674;2023-02-23T02:44:56;50.03;;;26.50;;
45322;SDS011;31382;50.200;8.674;2023-02-23T02:50:21;51.20;;;28.00;;
45322;SDS011;31382;50.200;8.674;2023-02-23T02:55:31;51.83;;;26.58;;
45322;SDS011;31382;50.200;8.674;2023-02-23T03:00:45;53.70;;;27.50;;
45322;SDS011;31382;50.200;8.674;2023-02-23T03:06:07;58.30;;;28.30;;
45322;SDS011;31382;50.200;8.674;2023-02-23T03:11:30;53.03;;;27.88;;
45322;SDS011;31382;50.200;8.674;2023-02-23T03:22:57;61.05;;;30.23;;
45322;SDS011;31382;50.200;8.674;2023-02-23T03:28:26;61.38;;;29.98;;
45322;SDS011;31382;50.200;8.674;2023-02-23T03:34:01;60.85;;;32.20;;
45322;SDS011;31382;50.200;8.674;2023-02-23T03:39:25;66.65;;;31.65;;
45322;SDS011;31382;50.200;8.674;2023-02-23T03:44:51;64.95;;;30.88;;
45322;SDS011;31382;50.200;8.674;2023-02-23T03:50:17;66.13;;;31.98;;
45322;SDS011;31382;50.200;8.674;2023-02-23T03:55:47;66.47;;;32.33;;
45322;SDS011;31382;50.200;8.674;2023-02-23T04:01:11;69.75;;;32.78;;
45322;SDS011;31382;50.200;8.674;2023-02-23T04:06:35;72.85;;;33.83;;
45322;SDS011;31382;50.200;8.674;2023-02-23T04:17:28;72.32;;;33.63;;
45322;SDS011;31382;50.200;8.674;2023-02-23T04:22:30;70.30;;;34.22;;
45322;SDS011;31382;50.200;8.674;2023-02-23T04:27:31;66.40;;;32.25;;
45322;SDS011;31382;50.200;8.674;2023-02-23T04:32:33;73.00;;;33.35;;
45322;SDS011;31382;50.200;8.674;2023-02-23T04:37:34;77.53;;;33.53;;
45322;SDS011;31382;50.200;8.674;2023-02-23T04:42:37;77.68;;;33.63;;
45322;SDS011;31382;50.200;8.674;2023-02-23T04:47:39;74.22;;;32.70;;
45322;SDS011;31382;50.200;8.674;2023-02-23T04:52:41;88.30;;;35.45;;
45322;SDS011;31382;50.200;8.674;2023-02-23T04:57:43;131.38;;;42.53;;
45322;SDS011;31382;50.200;8.674;2023-02-23T05:02:44;114.50;;;41.15;;
45322;SDS011;31382;50.200;8.674;2023-02-23T05:07:46;77.95;;;35.17;;
45322;SDS011;31382;50.200;8.674;2023-02-23T05:12:47;77.47;;;35.22;;
45322;SDS011;31382;50.200;8.674;2023-02-23T05:17:49;73.82;;;33.80;;
45322;SDS011;31382;50.200;8.674;2023-02-23T05:22:50;65.03;;;30.77;;
45322;SDS011;31382;50.200;8.674;2023-02-23T05:27:51;70.05;;;32.58;;
45322;SDS011;31382;50.200;8.674;2023-02-23T05:32:53;74.07;;;32.85;;
45322;SDS011;31382;50.200;8.674;2023-02-23T05:37:54;72.45;;;31.98;;
45322;SDS011;31382;50.200;8.674;2023-02-23T05:42:58;83.55;;;34.80;;
45322;SDS011;31382;50.200;8.674;2023-02-23T05:48:00;78.82;;;33.10;;
45322;SDS011;31382;50.200;8.674;2023-02-23T05:53:02;78.07;;;34.25;;
45322;SDS011;31382;50.200;8.674;2023-02-23T05:58:04;78.40;;;35.35;;
45322;SDS011;31382;50.200;8.674;2023-02-23T06:03:06;76.32;;;33.97;;
45322;SDS011;31382;50.200;8.674;2023-02-23T06:08:07;75.35;;;34.80;;
45322;SDS011;31382;50.200;8.674;2023-02-23T06:13:09;84.03;;;35.97;;
45322;SDS011;31382;50.200;8.674;2023-02-23T06:18:11;76.85;;;35.10;;
45322;SDS011;31382;50.200;8.674;2023-02-23T06:23:13;90.47;;;35.42;;
45322;SDS011;31382;50.200;8.674;2023-02-23T06:28:15;91.35;;;37.60;;
45322;SDS011;31382;50.200;8.674;2023-02-23T06:33:17;89.60;;;36.15;;
45322;SDS011;31382;50.200;8.674;2023-02-23T06:38:18;96.40;;;38.35;;
45322;SDS011;31382;50.200;8.674;2023-02-23T06:43:20;91.13;;;37.03;;
45322;SDS011;31382;50.200;8.674;2023-02-23T06:48:23;90.72;;;37.95;;
45322;SDS011;31382;50.200;8.674;2023-02-23T06:53:24;98.88;;;38.72;;
45322;SDS011;31382;50.200;8.674;2023-02-23T06:58:26;92.68;;;37.63;;
45322;SDS011;31382;50.200;8.674;2023-02-23T07:03:28;101.30;;;38.63;;
45322;SDS011;31382;50.200;8.674;2023-02-23T07:08:30;82.90;;;36.55;;
45322;SDS011;31382;50.200;8.674;2023-02-23T07:13:31;88.40;;;39.10;;
45322;SDS011;31382;50.200;8.674;2023-02-23T07:18:33;97.82;;;39.85;;
45322;SDS011;31382;50.200;8.674;2023-02-23T07:23:34;104.10;;;40.83;;
45322;SDS011;31382;50.200;8.674;2023-02-23T07:28:36;98.35;;;41.05;;
45322;SDS011;31382;50.200;8.674;2023-02-23T07:33:38;97.82;;;39.33;;
45322;SDS011;31382;50.200;8.674;2023-02-23T07:38:39;103.43;;;41.83;;
45322;SDS011;31382;50.200;8.674;2023-02-23T07:43:41;97.18;;;40.72;;
45322;SDS011;31382;50.200;8.674;2023-02-23T07:48:42;100.03;;;39.88;;
45322;SDS011;31382;50.200;8.674;2023-02-23T07:53:45;112.78;;;42.70;;
45322;SDS011;31382;50.200;8.674;2023-02-23T07:58:46;109.85;;;40.10;;
45322;SDS011;31382;50.200;8.674;2023-02-23T08:03:47;103.82;;;39.35;;
45322;SDS011;31382;50.200;8.674;2023-02-23T08:08:50;103.75;;;40.75;;
45322;SDS011;31382;50.200;8.674;2023-02-23T08:13:51;97.40;;;39.83;;
45322;SDS011;31382;50.200;8.674;2023-02-23T08:18:57;89.18;;;35.92;;
45322;SDS011;31382;50.200;8.674;2023-02-23T08:23:59;89.90;;;36.78;;
45322;SDS011;31382;50.200;8.674;2023-02-23T08:29:00;87.63;;;36.78;;
45322;SDS011;31382;50.200;8.674;2023-02-23T08:34:01;82.70;;;36.38;;
45322;SDS011;31382;50.200;8.674;2023-02-23T08:39:03;83.35;;;36.63;;
45322;SDS011;31382;50.200;8.674;2023-02-23T08:44:07;82.43;;;36.15;;
45322;SDS011;31382;50.200;8.674;2023-02-23T08:49:09;94.82;;;38.97;;
45322;SDS011;31382;50.200;8.674;2023-02-23T08:54:10;77.38;;;35.05;;
45322;SDS011;31382;50.200;8.674;2023-02-23T08:59:14;72.22;;;33.33;;
45322;SDS011;31382;50.200;8.674;2023-02-23T09:04:16;71.22;;;31.02;;
45322;SDS011;31382;50.200;8.674;2023-02-23T09:09:18;60.45;;;29.23;;
45322;SDS011;31382;50.200;8.674;2023-02-23T09:14:19;63.35;;;29.20;;
45322;SDS011;31382;50.200;8.674;2023-02-23T09:19:21;63.58;;;29.00;;
45322;SDS011;31382;50.200;8.674;2023-02-23T09:24:22;63.83;;;29.38;;
45322;SDS011;31382;50.200;8.674;2023-02-23T09:29:23;65.47;;;30.33;;
45322;SDS011;31382;50.200;8.674;2023-02-23T09:34:25;62.53;;;30.88;;
45322;SDS011;31382;50.200;8.674;2023-02-23T09:39:29;65.00;;;29.45;;
45322;SDS011;31382;50.200;8.674;2023-02-23T09:49:49;62.60;;;29.85;;
45322;SDS011;31382;50.200;8.674;2023-02-23T09:54:51;65.85;;;29.10;;
45322;SDS011;31382;50.200;8.674;2023-02-23T09:59:53;57.13;;;28.85;;
45322;SDS011;31382;50.200;8.674;2023-02-23T10:04:56;59.90;;;27.23;;
45322;SDS011;31382;50.200;8.674;2023-02-23T10:15:10;48.78;;;25.45;;
45322;SDS011;31382;50.200;8.674;2023-02-23T10:25:35;41.65;;;21.65;;
45322;SDS011;31382;50.200;8.674;2023-02-23T10:30:41;47.92;;;25.83;;
45322;SDS011;31382;50.200;8.674;2023-02-23T10:35:44;46.17;;;25.05;;
45322;SDS011;31382;50.200;8.674;2023-02-23T10:40:49;46.35;;;22.80;;
45322;SDS011;31382;50.200;8.674;2023-02-23T10:45:56;44.63;;;23.55;;
45322;SDS011;31382;50.200;8.674;2023-02-23T10:50:57;46.95;;;25.08;;
45322;SDS011;31382;50.200;8.674;2023-02-23T10:56:12;46.17;;;25.08;;
45322;SDS011;31382;50.200;8.674;2023-02-23T11:07:13;38.50;;;21.40;;
45322;SDS011;31382;50.200;8.674;2023-02-23T11:17:44;30.30;;;16.88;;
45322;SDS011;31382;50.200;8.674;2023-02-23T11:22:45;31.15;;;17.33;;
45322;SDS011;31382;50.200;8.674;2023-02-23T11:27:47;35.28;;;18.55;;
45322;SDS011;31382;50.200;8.674;2023-02-23T11:32:55;28.27;;;16.20;;
45322;SDS011;31382;50.200;8.674;2023-02-23T11:37:59;25.15;;;14.85;;
45322;SDS011;31382;50.200;8.674;2023-02-23T11:43:15;27.90;;;16.52;;
45322;SDS011;31382;50.200;8.674;2023-02-23T11:48:30;35.03;;;19.63;;
45322;SDS011;31382;50.200;8.674;2023-02-23T11:58:38;29.52;;;16.83;;
45322;SDS011;31382;50.200;8.674;2023-02-23T12:04:08;30.73;;;17.27;;
45322;SDS011;31382;50.200;8.674;2023-02-23T12:09:25;24.80;;;13.73;;
45322;SDS011;31382;50.200;8.674;2023-02-23T12:14:35;21.45;;;11.18;;
45322;SDS011;31382;50.200;8.674;2023-02-23T12:19:46;20.95;;;12.40;;
45322;SDS011;31382;50.200;8.674;2023-02-23T12:24:56;21.67;;;12.50;;
45322;SDS011;31382;50.200;8.674;2023-02-23T12:35:15;19.27;;;12.07;;
45322;SDS011;31382;50.200;8.674;2023-02-23T12:40:23;19.80;;;11.73;;
45322;SDS011;31382;50.200;8.674;2023-02-23T12:45:41;18.75;;;11.20;;
45322;SDS011;31382;50.200;8.674;2023-02-23T12:50:50;19.15;;;10.80;;
45322;SDS011;31382;50.200;8.674;2023-02-23T12:55:59;20.27;;;12.18;;
45322;SDS011;31382;50.200;8.674;2023-02-23T13:11:59;10.60;;;5.25;;
45322;SDS011;31382;50.200;8.674;2023-02-23T13:17:21;7.28;;;4.22;;
45322;SDS011;31382;50.200;8.674;2023-02-23T13:27:42;9.80;;;5.68;;
45322;SDS011;31382;50.200;8.674;2023-02-23T13:32:50;10.85;;;5.07;;
45322;SDS011;31382;50.200;8.674;2023-02-23T13:38:00;9.48;;;6.53;;
45322;SDS011;31382;50.200;8.674;2023-02-23T13:43:15;8.32;;;5.03;;
45322;SDS011;31382;50.200;8.674;2023-02-23T13:48:29;11.88;;;5.38;;
45322;SDS011;31382;50.200;8.674;2023-02-23T13:53:42;11.48;;;4.90;;
45322;SDS011;31382;50.200;8.674;2023-02-23T13:59:03;8.38;;;5.47;;
45322;SDS011;31382;50.200;8.674;2023-02-23T14:04:20;10.25;;;6.07;;
45322;SDS011;31382;50.200;8.674;2023-02-23T14:09:30;13.48;;;5.32;;
45322;SDS011;31382;50.200;8.674;2023-02-23T14:19:37;11.27;;;6.65;;
45322;SDS011;31382;50.200;8.674;2023-02-23T14:30:43;12.90;;;6.15;;
45322;SDS011;31382;50.200;8.674;2023-02-23T14:35:51;12.15;;;6.20;;
45322;SDS011;31382;50.200;8.674;2023-02-23T14:40:54;12.82;;;6.35;;
45322;SDS011;31382;50.200;8.674;2023-02-23T14:45:56;13.85;;;7.28;;
45322;SDS011;31382;50.200;8.674;2023-02-23T14:56:20;13.32;;;6.90;;
45322;SDS011;31382;50.200;8.674;2023-02-23T15:01:33;13.30;;;8.32;;
45322;SDS011;31382;50.200;8.674;2023-02-23T15:06:39;13.68;;;7.80;;
45322;SDS011;31382;50.200;8.674;2023-02-23T15:11:42;12.05;;;7.50;;
45322;SDS011;31382;50.200;8.674;2023-02-23T15:16:48;9.23;;;5.68;;
45322;SDS011;31382;50.200;8.674;2023-02-23T15:21:51;11.55;;;6.63;;
45322;SDS011;31382;50.200;8.674;2023-02-23T15:26:54;8.30;;;5.45;;
45322;SDS011;31382;50.200;8.674;2023-02-23T15:32:08;11.23;;;6.20;;
45322;SDS011;31382;50.200;8.674;2023-02-23T15:37:26;10.35;;;6.07;;
45322;SDS011;31382;50.200;8.674;2023-02-23T15:42:36;10.93;;;7.03;;
45322;SDS011;31382;50.200;8.674;2023-02-23T15:47:39;10.45;;;6.53;;
45322;SDS011;31382;50.200;8.674;2023-02-23T15:52:45;10.77;;;6.93;;
45322;SDS011;31382;50.200;8.674;2023-02-23T15:57:55;11.38;;;6.43;;
45322;SDS011;31382;50.200;8.674;2023-02-23T16:02:59;12.65;;;7.53;;
45322;SDS011;31382;50.200;8.674;2023-02-23T16:13:06;11.27;;;6.72;;
45322;SDS011;31382;50.200;8.674;2023-02-23T16:18:20;14.05;;;5.82;;
45322;SDS011;31382;50.200;8.674;2023-02-23T16:23:28;15.43;;;7.60;;
45322;SDS011;31382;50.200;8.674;2023-02-23T16:28:34;11.82;;;7.00;;
45322;SDS011;31382;50.200;8.674;2023-02-23T16:33:45;13.10;;;7.97;;
45322;SDS011;31382;50.200;8.674;2023-02-23T16:43:53;13.30;;;6.68;;
45322;SDS011;31382;50.200;8.674;2023-02-23T16:48:57;14.38;;;8.13;;
45322;SDS011;31382;50.200;8.674;2023-02-23T16:54:13;12.32;;;7.13;;
45322;SDS011;31382;50.200;8.674;2023-02-23T16:59:15;12.48;;;7.10;;
45322;SDS011;31382;50.200;8.674;2023-02-23T17:14:51;15.27;;;7.83;;
45322;SDS011;31382;50.200;8.674;2023-02-23T17:19:53;15.38;;;9.15;;
45322;SDS011;31382;50.200;8.674;2023-02-23T17:24:54;15.38;;;8.10;;
45322;SDS011;31382;50.200;8.674;2023-02-23T17:29:55;16.23;;;9.63;;
45322;SDS011;31382;50.200;8.674;2023-02-23T17:34:57;21.17;;;10.40;;
45322;SDS011;31382;50.200;8.674;2023-02-23T17:39:58;19.27;;;10.40;;
45322;SDS011;31382;50.200;8.674;2023-02-23T17:45:03;18.60;;;11.02;;
45322;SDS011;31382;50.200;8.674;2023-02-23T17:50:06;23.80;;;11.93;;
45322;SDS011;31382;50.200;8.674;2023-02-23T17:55:08;19.23;;;11.50;;
45322;SDS011;31382;50.200;8.674;2023-02-23T18:00:10;24.23;;;12.10;;
45322;SDS011;31382;50.200;8.674;2023-02-23T18:05:13;21.58;;;12.15;;
45322;SDS011;31382;50.200;8.674;2023-02-23T18:10:15;41.65;;;14.13;;
45322;SDS011;31382;50.200;8.674;2023-02-23T18:15:17;26.17;;;12.57;;
45322;SDS011;31382;50.200;8.674;2023-02-23T18:20:20;20.42;;;11.48;;
45322;SDS011;31382;50.200;8.674;2023-02-23T18:25:23;23.17;;;12.35;;
45322;SDS011;31382;50.200;8.674;2023-02-23T18:30:26;20.25;;;12.05;;
45322;SDS011;31382;50.200;8.674;2023-02-23T18:35:35;21.63;;;12.20;;
45322;SDS011;31382;50.200;8.674;2023-02-23T18:40:39;19.60;;;12.00;;
45322;SDS011;31382;50.200;8.674;2023-02-23T18:45:40;27.67;;;13.25;;
45322;SDS011;31382;50.200;8.674;2023-02-23T18:50:43;22.33;;;11.98;;
45322;SDS011;31382;50.200;8.674;2023-02-23T18:55:44;23.92;;;13.05;;
45322;SDS011;31382;50.200;8.674;2023-02-23T19:00:47;22.35;;;11.73;;
45322;SDS011;31382;50.200;8.674;2023-02-23T19:05:48;27.38;;;14.27;;
45322;SDS011;31382;50.200;8.674;2023-02-23T19:10:53;24.27;;;12.52;;
45322;SDS011;31382;50.200;8.674;2023-02-23T19:15:54;20.15;;;11.82;;
45322;SDS011;31382;50.200;8.674;2023-02-23T19:20:56;19.02;;;11.60;;
45322;SDS011;31382;50.200;8.674;2023-02-23T19:25:57;20.75;;;10.70;;
45322;SDS011;31382;50.200;8.674;2023-02-23T19:31:03;17.92;;;9.45;;
45322;SDS011;31382;50.200;8.674;2023-02-23T19:36:06;19.15;;;9.32;;
45322;SDS011;31382;50.200;8.674;2023-02-23T19:41:11;15.35;;;8.70;;
45322;SDS011;31382;50.200;8.674;2023-02-23T19:46:15;18.02;;;10.30;;
45322;SDS011;31382;50.200;8.674;2023-02-23T19:51:17;20.30;;;9.60;;
45322;SDS011;31382;50.200;8.674;2023-02-23T19:56:20;20.38;;;10.27;;
45322;SDS011;31382;50.200;8.674;2023-02-23T20:01:23;17.45;;;9.45;;
45322;SDS011;31382;50.200;8.674;2023-02-23T20:06:28;20.40;;;10.80;;
45322;SDS011;31382;50.200;8.674;2023-02-23T20:11:32;19.35;;;11.15;;
45322;SDS011;31382;50.200;8.674;2023-02-23T20:16:33;17.67;;;10.75;;
45322;SDS011;31382;50.200;8.674;2023-02-23T20:21:35;18.45;;;8.63;;
45322;SDS011;31382;50.200;8.674;2023-02-23T20:26:37;16.52;;;9.38;;
45322;SDS011;31382;50.200;8.674;2023-02-23T20:31:39;16.92;;;9.35;;
45322;SDS011;31382;50.200;8.674;2023-02-23T20:36:51;18.05;;;9.45;;
45322;SDS011;31382;50.200;8.674;2023-02-23T20:41:55;17.17;;;8.32;;
45322;SDS011;31382;50.200;8.674;2023-02-23T20:46:56;16.27;;;9.50;;
45322;SDS011;31382;50.200;8.674;2023-02-23T20:51:57;15.40;;;10.13;;
45322;SDS011;31382;50.200;8.674;2023-02-23T20:56:59;19.15;;;9.73;;
45322;SDS011;31382;50.200;8.674;2023-02-23T21:02:09;19.05;;;10.43;;
45322;SDS011;31382;50.200;8.674;2023-02-23T21:07:13;22.52;;;10.38;;
45322;SDS011;31382;50.200;8.674;2023-02-23T21:12:15;18.92;;;10.55;;
45322;SDS011;31382;50.200;8.674;2023-02-23T21:17:16;25.98;;;13.00;;
45322;SDS011;31382;50.200;8.674;2023-02-23T21:22:17;24.60;;;12.85;;
45322;SDS011;31382;50.200;8.674;2023-02-23T21:27:19;27.63;;;13.95;;
45322;SDS011;31382;50.200;8.674;2023-02-23T21:32:21;28.02;;;14.13;;
45322;SDS011;31382;50.200;8.674;2023-02-23T21:37:23;32.13;;;14.93;;
45322;SDS011;31382;50.200;8.674;2023-02-23T21:42:24;29.90;;;14.45;;
45322;SDS011;31382;50.200;8.674;2023-02-23T21:47:26;30.63;;;14.55;;
45322;SDS011;31382;50.200;8.674;2023-02-23T21:52:28;28.95;;;13.10;;
45322;SDS011;31382;50.200;8.674;2023-02-23T21:57:31;28.77;;;13.05;;
45322;SDS011;31382;50.200;8.674;2023-02-23T22:02:33;26.17;;;12.90;;
45322;SDS011;31382;50.200;8.674;2023-02-23T22:07:38;27.90;;;14.02;;
45322;SDS011;31382;50.200;8.674;2023-02-23T22:12:39;28.98;;;14.30;;
45322;SDS011;31382;50.200;8.674;2023-02-23T22:17:41;26.70;;;13.55;;
45322;SDS011;31382;50.200;8.674;2023-02-23T22:22:43;28.90;;;14.57;;
45322;SDS011;31382;50.200;8.674;2023-02-23T22:27:45;28.10;;;13.43;;
45322;SDS011;31382;50.200;8.674;2023-02-23T22:32:47;27.02;;;14.00;;
45322;SDS011;31382;50.200;8.674;2023-02-23T22:37:48;26.60;;;12.88;;
45322;SDS011;31382;50.200;8.674;2023-02-23T22:42:50;29.23;;;13.77;;
45322;SDS011;31382;50.200;8.674;2023-02-23T22:47:51;25.73;;;12.40;;
45322;SDS011;31382;50.200;8.674;2023-02-23T22:52:52;23.58;;;10.13;;
45322;SDS011;31382;50.200;8.674;2023-02-23T22:57:54;27.92;;;12.30;;
45322;SDS011;31382;50.200;8.674;2023-02-23T23:02:56;31.83;;;12.77;;
45322;SDS011;31382;50.200;8.674;2023-02-23T23:07:58;23.95;;;12.38;;
45322;SDS011;31382;50.200;8.674;2023-02-23T23:12:59;27.45;;;13.52;;
45322;SDS011;31382;50.200;8.674;2023-02-23T23:18:03;30.50;;;13.30;;
45322;SDS011;31382;50.200;8.674;2023-02-23T23:23:14;28.80;;;13.10;;
45322;SDS011;31382;50.200;8.674;2023-02-23T23:28:17;32.13;;;13.70;;
45322;SDS011;31382;50.200;8.674;2023-02-23T23:33:19;28.45;;;12.50;;
45322;SDS011;31382;50.200;8.674;2023-02-23T23:38:21;26.55;;;11.48;;
45322;SDS011;31382;50.200;8.674;2023-02-23T23:43:22;30.70;;;12.90;;
45322;SDS011;31382;50.200;8.674;2023-02-23T23:48:25;29.95;;;13.45;;
45322;SDS011;31382;50.200;8.674;2023-02-23T23:53:26;30.38;;;12.23;;
45322;SDS011;31382;50.200;8.674;2023-02-23T23:58:27;32.75;;;12.20;;
